Time;durP1;ratioP1;P1;durP2;ratioP2;P2;SDS_P1;SDS_P2;PMS_P1;PMS_P2;Temp;Humidity;BMP_temperature;BMP_pressure;BME280_temperature;BME280_humidity;BME280_pressure;Samples;Min_cycle;Max_cycle;Signal;HPM_P1;HPM_P2
2022/02/28 00:01:25;;;;;;;52.65;20.65;;;;;;;0.74;74.93;102820.91;5033464;57;1138687;-73
2022/02/28 00:06:27;;;;;;;57.87;19.80;;;;;;;0.48;75.35;102824.77;5032876;57;1138655;-76
2022/02/28 00:11:34;;;;;;;54.07;19.50;;;;;;;0.35;76.08;102827.37;5033629;57;1139782;-74
2022/02/28 00:16:40;;;;;;;62.35;20.25;;;;;;;0.34;76.38;102824.33;4998562;57;1138641;-73
2022/02/28 00:21:46;;;;;;;54.90;19.73;;;;;;;0.24;76.35;102819.12;5033630;57;1138541;-73
2022/02/28 00:26:52;;;;;;;56.30;20.43;;;;;;;0.21;77.13;102817.80;5033154;57;1138650;-73
2022/02/28 00:31:57;;;;;;;56.33;21.53;;;;;;;0.32;77.79;102823.89;5033204;57;1138595;-73
2022/02/28 00:37:03;;;;;;;53.10;19.80;;;;;;;0.37;77.59;102827.81;5033316;57;1138583;-73
2022/02/28 00:42:09;;;;;;;48.10;18.80;;;;;;;0.24;77.68;102834.30;5033286;57;1138618;-74
2022/02/28 00:47:15;;;;;;;51.37;18.77;;;;;;;0.14;77.97;102827.34;5033178;57;1138577;-73
2022/02/28 00:52:21;;;;;;;51.63;20.03;;;;;;;0.17;78.59;102825.16;5033280;57;1138939;-73
2022/02/28 00:57:27;;;;;;;50.87;19.80;;;;;;;0.35;79.73;102821.30;5055496;56;1138549;-74
2022/02/28 01:02:33;;;;;;;60.78;22.07;;;;;;;0.58;80.28;102813.09;5118744;56;1138776;-75
2022/02/28 01:07:39;;;;;;;70.20;22.80;;;;;;;0.80;80.31;102787.89;5086971;56;1138788;-75
2022/02/28 01:12:44;;;;;;;55.50;23.27;;;;;;;0.96;80.18;102815.66;5137231;56;1138565;-74
2022/02/28 01:17:51;;;;;;;66.57;24.23;;;;;;;1.03;79.71;102805.67;5137521;56;1138632;-73
2022/02/28 01:22:57;;;;;;;63.53;23.97;;;;;;;1.10;79.80;102800.44;5137347;56;1138619;-74
2022/02/28 01:28:03;;;;;;;59.47;22.30;;;;;;;1.00;79.22;102796.55;5137283;56;1138648;-74
2022/02/28 01:33:09;;;;;;;59.43;19.90;;;;;;;0.79;79.07;102788.75;5157492;56;1138894;-73
2022/02/28 01:38:14;;;;;;;51.60;18.90;;;;;;;0.67;79.68;102780.95;5137351;56;1138850;-74
2022/02/28 01:43:20;;;;;;;38.88;15.63;;;;;;;0.63;80.52;102789.20;5137226;56;1138938;-75
2022/02/28 01:48:26;;;;;;;48.90;16.52;;;;;;;0.66;81.04;102780.09;5137542;56;1138832;-74
2022/02/28 01:53:32;;;;;;;41.30;15.78;;;;;;;0.65;81.29;102781.39;5137780;56;1138775;-74
2022/02/28 01:58:40;;;;;;;43.52;16.45;;;;;;;0.69;81.72;102772.72;5068029;56;1138994;-74
2022/02/28 02:03:46;;;;;;;44.95;17.57;;;;;;;0.68;81.94;102761.86;5062847;57;1138957;-76
2022/02/28 02:08:52;;;;;;;48.90;17.07;;;;;;;0.69;82.15;102762.30;5031758;57;1138751;-75
2022/02/28 02:14:00;;;;;;;37.40;15.40;;;;;;;0.73;82.43;102755.36;5030922;57;1138940;-73
2022/02/28 02:19:07;;;;;;;35.07;12.53;;;;;;;0.83;82.90;102759.67;5031101;56;1138706;-74
2022/02/28 02:24:14;;;;;;;30.17;12.03;;;;;;;0.82;82.77;102754.89;5030878;56;1138736;-74
2022/02/28 02:29:19;;;;;;;33.63;11.80;;;;;;;0.83;83.11;102758.37;5030822;56;1138898;-73
2022/02/28 02:34:25;;;;;;;27.60;11.53;;;;;;;0.85;83.30;102757.94;5031195;56;1138851;-74
2022/02/28 02:39:31;;;;;;;28.23;11.33;;;;;;;0.87;83.62;102753.16;5050686;56;1138904;-75
2022/02/28 02:44:38;;;;;;;25.57;11.00;;;;;;;0.97;84.14;102740.97;5031081;56;1139144;-73
2022/02/28 02:49:44;;;;;;;25.48;10.24;;;;;;;1.04;84.05;102738.80;5030796;57;1138742;-75
2022/02/28 02:54:49;;;;;;;33.78;11.73;;;;;;;1.04;83.88;102741.41;5035070;56;1138696;-73
2022/02/28 02:59:59;;;;;;;24.90;10.40;;;;;;;1.05;83.95;102747.92;5052947;56;1138797;-73
2022/02/28 03:05:06;;;;;;;29.13;10.40;;;;;;;1.08;83.96;102740.94;5056427;56;1138821;-74
2022/02/28 03:10:12;;;;;;;25.83;10.40;;;;;;;1.09;84.13;102743.54;5112514;56;1138850;-75
2022/02/28 03:15:18;;;;;;;28.27;11.00;;;;;;;1.15;84.36;102738.32;5121103;56;1138875;-73
2022/02/28 03:20:25;;;;;;;28.37;10.43;;;;;;;1.21;84.61;102736.14;5121870;56;1138674;-74
2022/02/28 03:25:31;;;;;;;24.87;8.53;;;;;;;1.25;84.53;102740.45;5121946;56;1138687;-74
2022/02/28 03:30:39;;;;;;;28.28;10.16;;;;;;;1.32;84.74;102736.96;5121212;56;1180209;-73
2022/02/28 03:35:46;;;;;;;21.82;9.70;;;;;;;1.29;84.50;102730.02;5122181;56;1138928;-76
2022/02/28 03:40:52;;;;;;;18.33;9.13;;;;;;;1.26;84.42;102746.09;5122398;56;1136780;-74
2022/02/28 03:46:00;;;;;;;28.33;9.03;;;;;;;1.25;84.42;102745.23;5122007;56;1136911;-75
2022/02/28 03:51:09;;;;;;;28.30;9.57;;;;;;;1.26;84.63;102747.39;5121677;56;1136949;-74
2022/02/28 03:56:15;;;;;;;25.27;10.50;;;;;;;1.23;84.45;102752.61;5092890;56;1136781;-76
2022/02/28 04:01:22;;;;;;;25.73;9.43;;;;;;;1.23;84.96;102760.00;5057462;57;1138946;-74
2022/02/28 04:06:31;;;;;;;26.37;9.80;;;;;;;1.26;85.05;102752.17;5057885;56;1136627;-75
2022/02/28 04:11:37;;;;;;;19.98;9.45;;;;;;;1.23;84.94;102750.01;5037166;56;1136599;-74
2022/02/28 04:16:43;;;;;;;27.03;10.17;;;;;;;1.19;84.84;102745.70;5031757;56;1137020;-75
2022/02/28 04:21:50;;;;;;;25.00;10.10;;;;;;;1.23;85.44;102756.52;5026256;56;1138921;-73
2022/02/28 04:26:57;;;;;;;20.37;8.93;;;;;;;1.21;85.35;102753.95;5031526;56;1139116;-76
2022/02/28 04:32:04;;;;;;;29.07;10.10;;;;;;;1.18;85.22;102753.09;5031439;56;1136834;-74
2022/02/28 04:37:12;;;;;;;28.57;9.43;;;;;;;1.15;85.32;102755.70;5031352;56;1138597;-74
2022/02/28 04:42:18;;;;;;;34.10;9.93;;;;;;;1.11;85.84;102751.36;5031393;56;1136777;-73
2022/02/28 04:47:25;;;;;;;28.37;10.47;;;;;;;1.01;85.65;102751.39;5031934;56;1136758;-73
2022/02/28 04:52:33;;;;;;;31.37;9.57;;;;;;;0.97;86.00;102748.36;5026169;56;1138567;-75
2022/02/28 04:57:42;;;;;;;32.80;9.93;;;;;;;1.00;86.26;102744.87;5093495;56;1136759;-75
2022/02/28 05:02:49;;;;;;;23.95;8.48;;;;;;;0.97;86.54;102743.14;5111940;56;1136701;-74
2022/02/28 05:07:57;;;;;;;23.97;9.17;;;;;;;0.97;86.64;102741.84;5114589;56;1136716;-75
2022/02/28 05:13:05;;;;;;;31.90;8.00;;;;;;;0.93;86.46;102741.84;5095344;56;1136558;-76
2022/02/28 05:18:11;;;;;;;18.23;8.70;;;;;;;0.87;86.65;102737.97;5094127;56;1136467;-76
2022/02/28 05:23:18;;;;;;;24.57;9.83;;;;;;;0.83;86.71;102745.34;5099725;56;1136513;-75
2022/02/28 05:28:25;;;;;;;24.63;10.17;;;;;;;0.84;87.07;102740.14;5139161;56;1136550;-76
2022/02/28 05:33:32;;;;;;;26.37;9.77;;;;;;;0.76;86.61;102744.51;5110379;56;1138759;-74
2022/02/28 05:38:39;;;;;;;29.57;10.67;;;;;;;0.74;86.74;102748.84;5113849;56;1136754;-74
2022/02/28 05:43:46;;;;;;;34.15;15.75;;;;;;;0.71;86.51;102759.27;5063841;56;1138799;-75
2022/02/28 05:48:52;;;;;;;32.83;15.13;;;;;;;0.68;86.36;102764.47;5065769;56;1138669;-73
2022/02/28 05:54:00;;;;;;;35.37;13.43;;;;;;;0.64;86.30;102758.39;5065385;56;1138565;-75
2022/02/28 05:59:06;;;;;;;31.53;13.63;;;;;;;0.60;86.58;102760.58;5041593;56;1138868;-75
2022/02/28 06:04:12;;;;;;;42.50;14.23;;;;;;;0.56;86.61;102764.48;5037827;56;1138787;-76
2022/02/28 06:09:18;;;;;;;56.27;23.27;;;;;;;0.55;86.69;102773.16;5033242;57;1138734;-75
2022/02/28 06:14:23;;;;;;;84.57;30.13;;;;;;;0.64;87.61;102775.75;5087271;56;1138962;-77
2022/02/28 06:19:29;;;;;;;63.37;23.23;;;;;;;0.68;87.13;102782.70;5121306;56;1139013;-75
2022/02/28 06:24:35;;;;;;;39.97;16.87;;;;;;;0.75;87.70;102785.74;5066000;56;1139143;-74
2022/02/28 06:29:43;;;;;;;56.57;17.53;;;;;;;0.90;88.46;102786.16;5090947;56;1138815;-76
2022/02/28 06:34:48;;;;;;;49.03;15.03;;;;;;;1.11;88.70;102792.62;5075257;56;1138711;-75
2022/02/28 06:39:54;;;;;;;47.40;16.60;;;;;;;1.35;88.60;102798.22;5057001;57;1138706;-75
2022/02/28 06:45:00;;;;;;;41.70;15.33;;;;;;;1.54;88.65;102803.78;5056905;57;1138765;-74
2022/02/28 06:50:07;;;;;;;29.03;11.67;;;;;;;1.74;88.23;102811.53;4982230;57;1138900;-74
2022/02/28 06:55:13;;;;;;;36.67;12.33;;;;;;;1.83;86.99;102821.08;5001930;57;1138990;-74
2022/02/28 07:00:20;;;;;;;26.23;11.53;;;;;;;1.89;87.25;102819.72;5142460;56;1139102;-74
2022/02/28 07:05:37;;;;;;;42.57;12.77;;;;;;;2.08;87.50;102817.45;5087903;56;1138771;-74
2022/02/28 07:10:46;;;;;;;29.27;10.08;;;;;;;2.23;87.30;102823.02;5110796;56;1138879;-74
2022/02/28 07:15:52;;;;;;;30.23;10.18;;;;;;;2.44;87.00;102826.34;5142073;56;1138805;-75
2022/02/28 07:20:58;;;;;;;29.17;10.60;;;;;;;2.54;86.54;102823.23;5142418;56;1138707;-75
2022/02/28 07:26:04;;;;;;;23.00;9.47;;;;;;;2.75;86.21;102824.83;5129432;56;1139037;-75
2022/02/28 07:31:10;;;;;;;23.17;8.70;;;;;;;2.85;85.47;102832.14;5057807;56;1137098;-75
2022/02/28 07:36:15;;;;;;;22.20;8.87;;;;;;;2.95;84.44;102827.24;5057796;57;1136659;-75
2022/02/28 07:41:21;;;;;;;29.47;9.30;;;;;;;2.97;84.18;102831.58;5057942;56;1136734;-75
2022/02/28 07:46:27;;;;;;;22.83;8.97;;;;;;;3.13;84.70;102829.25;5057602;56;1136596;-76
2022/02/28 07:51:33;;;;;;;23.17;9.70;;;;;;;3.42;84.89;102834.17;5057752;56;1136722;-75
2022/02/28 07:56:40;;;;;;;29.77;12.00;;;;;;;3.59;83.00;102837.91;5092236;56;1136865;-75
2022/02/28 08:01:45;;;;;;;27.20;9.03;;;;;;;3.84;82.95;102839.34;5122162;56;1139129;-74
2022/02/28 08:06:52;;;;;;;24.80;9.80;;;;;;;4.09;82.11;102837.73;5122195;56;1136732;-75
2022/02/28 08:11:58;;;;;;;28.07;13.63;;;;;;;4.19;80.59;102845.42;5122292;56;1136651;-74
2022/02/28 08:17:05;;;;;;;20.00;9.33;;;;;;;4.31;79.05;102851.37;5121451;56;1138774;-74
2022/02/28 08:22:10;;;;;;;20.40;8.43;;;;;;;4.42;78.43;102854.72;5122010;56;1136801;-73
2022/02/28 08:27:16;;;;;;;21.73;9.17;;;;;;;4.30;78.16;102855.74;5112524;56;1136736;-74
2022/02/28 08:32:22;;;;;;;22.43;9.33;;;;;;;4.45;76.56;102859.45;5066321;56;1136708;-74
2022/02/28 08:37:28;;;;;;;34.77;11.87;;;;;;;4.67;76.39;102852.58;5066033;56;1136937;-75
2022/02/28 08:42:34;;;;;;;21.73;8.87;;;;;;;4.82;75.56;102860.20;5065828;56;1138808;-76
2022/02/28 08:47:40;;;;;;;26.03;9.67;;;;;;;4.86;74.95;102859.27;5066437;57;1136820;-76
2022/02/28 08:52:46;;;;;;;27.45;8.55;;;;;;;5.05;74.53;102859.36;5066229;56;1136579;-75
2022/02/28 08:57:52;;;;;;;23.73;11.90;;;;;;;5.29;73.65;102862.01;5109020;56;1136824;-76
2022/02/28 09:02:58;;;;;;;17.10;9.53;;;;;;;5.39;73.51;102858.31;5102622;56;1138868;-76
2022/02/28 09:08:05;;;;;;;19.00;7.45;;;;;;;5.34;70.03;102857.55;5141236;56;1136603;-76
2022/02/28 09:13:11;;;;;;;15.13;5.83;;;;;;;5.37;70.60;102858.78;5079135;56;1136790;-75
2022/02/28 09:18:17;;;;;;;12.17;4.80;;;;;;;5.36;68.98;102857.49;5057652;57;1136620;-78
2022/02/28 09:23:23;;;;;;;21.27;5.47;;;;;;;5.33;69.14;102857.58;5031164;57;1136553;-75
2022/02/28 09:28:29;;;;;;;9.23;4.30;;;;;;;5.39;68.37;102867.49;5032015;56;1136572;-75
2022/02/28 09:33:35;;;;;;;9.13;4.43;;;;;;;5.55;67.89;102868.94;5031265;57;1134521;-76
2022/02/28 09:38:40;;;;;;;18.77;4.50;;;;;;;5.70;67.25;102872.16;5055791;56;1134705;-76
2022/02/28 09:43:48;;;;;;;13.35;6.15;;;;;;;5.69;64.96;102868.66;5078532;56;1136602;-76
2022/02/28 09:49:13;;;;;;;7.70;3.00;;;;;;;5.62;63.01;102865.31;5042663;56;1136683;-75
2022/02/28 09:54:37;;;;;;;31.50;13.37;;;;;;;5.72;63.47;102864.67;5035694;56;1134541;-74
2022/02/28 09:59:45;;;;;;;21.90;9.65;;;;;;;5.73;63.81;102863.78;5051532;56;1138763;-74
2022/02/28 10:04:53;;;;;;;8.08;4.40;;;;;;;5.88;63.21;102862.19;5072075;56;1136696;-74
2022/02/28 10:10:13;;;;;;;7.20;4.10;;;;;;;5.93;59.62;102868.22;5042863;56;1134685;-73
2022/02/28 10:15:23;;;;;;;12.47;3.87;;;;;;;5.93;61.30;102865.59;5115242;56;1134664;-75
2022/02/28 10:20:38;;;;;;;9.70;4.07;;;;;;;5.95;54.86;102866.43;5124492;56;1136544;-75
2022/02/28 10:25:52;;;;;;;10.70;3.97;;;;;;;5.99;56.33;102873.33;5149059;56;1134581;-73
2022/02/28 10:31:15;;;;;;;10.10;3.67;;;;;;;5.87;53.38;102868.30;5145930;56;1136671;-76
2022/02/28 10:36:32;;;;;;;15.13;5.67;;;;;;;5.92;56.31;102867.80;5150665;56;1136922;-74
2022/02/28 10:41:43;;;;;;;12.67;5.23;;;;;;;6.02;56.02;102856.64;5135626;56;1136671;-72
2022/02/28 10:46:50;;;;;;;17.23;6.10;;;;;;;6.02;52.67;102867.59;5063286;57;1136844;-72
2022/02/28 10:52:07;;;;;;;13.37;5.20;;;;;;;5.95;55.33;102877.38;5063512;56;1137026;-74
2022/02/28 10:57:27;;;;;;;12.93;5.83;;;;;;;5.93;55.21;102870.84;5114771;56;1136664;-72
2022/02/28 11:02:40;;;;;;;18.83;5.03;;;;;;;5.88;54.41;102879.26;5046239;56;1136869;-75
2022/02/28 11:07:47;;;;;;;11.10;6.60;;;;;;;5.91;55.29;102875.27;5072056;56;1136666;-73
2022/02/28 11:12:53;;;;;;;14.10;6.83;;;;;;;5.95;54.74;102877.38;5032920;57;1136956;-74
2022/02/28 11:18:00;;;;;;;17.70;4.58;;;;;;;5.91;53.79;102871.77;5033033;57;1137293;-74
2022/02/28 11:23:07;;;;;;;20.03;5.03;;;;;;;5.85;52.10;102871.40;5047983;56;1136695;-74
2022/02/28 11:28:12;;;;;;;10.95;3.92;;;;;;;5.89;55.14;102875.73;5098532;56;1136644;-73
2022/02/28 11:33:19;;;;;;;11.23;3.70;;;;;;;6.02;55.52;102872.40;5122145;56;1136699;-75
2022/02/28 11:38:29;;;;;;;9.00;3.73;;;;;;;6.07;52.75;102870.55;5120841;56;1136862;-73
2022/02/28 11:43:45;;;;;;;25.57;4.30;;;;;;;6.08;50.80;102870.11;5121550;56;1134566;-74
2022/02/28 11:48:58;;;;;;;11.95;3.62;;;;;;;6.25;55.24;102868.84;5087712;56;1136611;-73
2022/02/28 11:54:19;;;;;;;7.03;3.77;;;;;;;6.37;53.15;102870.78;5076660;56;1136599;-74
2022/02/28 11:59:33;;;;;;;5.40;3.33;;;;;;;6.48;53.46;102869.63;5089762;56;1134577;-73
2022/02/28 12:04:46;;;;;;;11.10;5.23;;;;;;;6.56;49.62;102872.96;5089961;56;1134396;-73
2022/02/28 12:10:06;;;;;;;13.68;3.27;;;;;;;6.59;50.36;102866.29;5082427;56;1136642;-73
2022/02/28 12:15:13;;;;;;;9.57;3.83;;;;;;;6.67;49.84;102862.18;5080123;56;1136466;-74
2022/02/28 12:20:28;;;;;;;10.48;4.87;;;;;;;6.64;46.82;102862.25;5083071;56;1134556;-73
2022/02/28 12:25:59;;;;;;;10.67;4.80;;;;;;;6.58;49.28;102857.12;5061342;56;1136718;-74
2022/02/28 12:31:12;;;;;;;15.57;5.53;;;;;;;6.75;47.17;102859.34;5087177;56;1137022;-74
2022/02/28 12:36:33;;;;;;;8.37;4.70;;;;;;;6.85;49.29;102862.19;5086937;56;1136665;-75
2022/02/28 12:41:55;;;;;;;13.57;7.47;;;;;;;6.93;46.90;102866.34;5092885;56;1134490;-76
2022/02/28 12:46:57;;;;;;;13.90;4.25;;;;;;;6.97;49.08;102866.69;5117082;56;1136580;-76
2022/02/28 12:52:03;;;;;;;4.83;4.10;;;;;;;7.06;49.13;102862.95;5122068;56;1136733;-76
2022/02/28 12:57:08;;;;;;;13.73;4.37;;;;;;;7.06;47.55;102878.28;5080840;56;1134952;-74
2022/02/28 13:02:17;;;;;;;6.87;4.60;;;;;;;7.10;46.82;102877.77;5077008;56;1136564;-74
2022/02/28 13:07:24;;;;;;;11.27;4.53;;;;;;;7.16;47.75;102873.67;5096573;56;1134615;-73
2022/02/28 13:12:32;;;;;;;9.93;4.67;;;;;;;7.22;48.83;102867.36;5137315;56;1136680;-75
2022/02/28 13:17:39;;;;;;;8.83;4.10;;;;;;;7.25;47.50;102871.23;5127603;56;1134601;-74
2022/02/28 13:22:46;;;;;;;5.77;3.00;;;;;;;7.33;48.34;102878.50;5114196;56;1140554;-75
2022/02/28 13:27:51;;;;;;;16.45;4.33;;;;;;;7.33;47.82;102868.80;5056221;56;1134644;-73
2022/02/28 13:32:57;;;;;;;16.00;4.85;;;;;;;7.28;48.21;102868.08;4981972;57;1136807;-74
2022/02/28 13:38:04;;;;;;;12.47;4.13;;;;;;;7.18;47.63;102875.78;5038600;56;1136760;-73
2022/02/28 13:43:10;;;;;;;5.40;3.53;;;;;;;7.24;47.76;102880.03;5033678;57;1136902;-73
2022/02/28 13:48:22;;;;;;;9.77;5.20;;;;;;;7.16;42.37;102872.80;5054734;56;1134722;-73
2022/02/28 13:53:47;;;;;;;14.73;6.70;;;;;;;7.15;42.69;102876.34;5083556;56;1134584;-74
2022/02/28 13:58:53;;;;;;;14.33;6.50;;;;;;;7.19;42.02;102880.14;5089043;56;1136665;-75
2022/02/28 14:04:04;;;;;;;8.73;4.08;;;;;;;7.05;41.80;102871.73;5117628;56;1136795;-75
2022/02/28 14:09:10;;;;;;;15.53;7.13;;;;;;;6.95;42.25;102871.57;5067234;56;1134623;-75
2022/02/28 14:14:15;;;;;;;10.77;4.90;;;;;;;6.82;41.19;102869.70;5096060;56;1136557;-74
2022/02/28 14:19:21;;;;;;;10.77;5.07;;;;;;;6.63;40.84;102871.03;5082560;56;1136658;-75
2022/02/28 14:24:58;;;;;;;26.00;10.63;;;;;;;6.49;40.96;102865.23;4866815;58;1242794;-75
2022/02/28 14:30:22;;;;;;;17.25;6.40;;;;;;;6.37;42.58;102875.59;4957259;57;1138667;-75
2022/02/28 14:35:31;;;;;;;35.90;13.47;;;;;;;6.51;42.55;102873.50;5109700;56;1136889;-77
2022/02/28 14:40:37;;;;;;;42.90;16.40;;;;;;;6.64;44.07;102874.08;5149501;56;1138776;-75
2022/02/28 14:45:43;;;;;;;21.87;9.83;;;;;;;6.59;42.88;102878.13;5149897;56;1138548;-75
2022/02/28 14:50:50;;;;;;;18.70;8.67;;;;;;;6.54;43.98;102873.89;5150161;56;1137029;-75
2022/02/28 14:55:55;;;;;;;34.30;14.57;;;;;;;6.50;43.81;102874.85;5117791;56;1137024;-76
2022/02/28 15:01:01;;;;;;;13.95;8.23;;;;;;;6.57;43.45;102873.83;5065051;56;1139041;-76
2022/02/28 15:06:08;;;;;;;12.85;4.28;;;;;;;6.80;43.45;102875.89;5065067;56;1136780;-75
2022/02/28 15:11:13;;;;;;;13.55;5.35;;;;;;;6.62;41.29;102873.25;5065084;56;1136712;-75
2022/02/28 15:16:19;;;;;;;24.67;6.03;;;;;;;6.32;41.66;102869.11;5065455;56;1136660;-75
2022/02/28 15:21:26;;;;;;;45.23;10.80;;;;;;;6.24;43.72;102867.56;5065632;56;1136785;-75
2022/02/28 15:26:32;;;;;;;56.73;18.33;;;;;;;6.57;44.35;102866.77;5065289;56;1138908;-74
2022/02/28 15:31:38;;;;;;;14.57;6.97;;;;;;;8.26;43.88;102860.00;5063638;57;1138943;-77
2022/02/28 15:36:44;;;;;;;19.97;5.57;;;;;;;9.22;39.90;102860.85;5063071;57;1136606;-75
2022/02/28 15:41:50;;;;;;;25.00;10.20;;;;;;;7.46;41.52;102868.05;5063016;57;1136812;-75
2022/02/28 15:46:55;;;;;;;65.77;47.93;;;;;;;7.46;41.52;102868.05;5062158;57;1138701;-76
2022/02/28 15:52:02;;;;;;;19.27;8.00;;;;;;;6.92;42.55;102863.75;5073278;56;1139149;-76
2022/02/28 15:57:10;;;;;;;12.97;6.40;;;;;;;6.51;42.80;102869.56;5063307;56;1136659;-76
2022/02/28 16:02:17;;;;;;;14.90;6.37;;;;;;;6.65;44.33;102867.92;5066428;56;1136689;-76
2022/02/28 16:07:23;;;;;;;20.47;7.40;;;;;;;6.40;43.83;102866.33;5062702;56;1136630;-75
2022/02/28 16:12:29;;;;;;;20.63;6.63;;;;;;;6.09;45.23;102862.64;5069799;56;1137026;-75
2022/02/28 16:17:35;;;;;;;26.60;10.63;;;;;;;5.93;45.76;102862.10;5063431;56;1136648;-74
2022/02/28 16:22:42;;;;;;;78.70;42.47;;;;;;;5.69;46.36;102862.09;5085032;56;1138810;-75
2022/02/28 16:27:48;;;;;;;52.76;22.26;;;;;;;5.56;46.48;102872.43;5079741;57;1138800;-76
2022/02/28 16:32:55;;;;;;;137.55;53.78;;;;;;;5.36;46.97;102866.23;5044354;57;1138887;-76
2022/02/28 16:38:02;;;;;;;145.38;61.45;;;;;;;5.22;47.81;102871.73;5057253;57;1140871;-76
2022/02/28 16:43:07;;;;;;;149.90;62.73;;;;;;;5.20;48.48;102873.95;5059896;57;1140808;-75
2022/02/28 16:48:14;;;;;;;166.33;68.37;;;;;;;5.12;48.76;102880.66;5093872;56;1140806;-75
2022/02/28 16:53:21;;;;;;;135.17;50.83;;;;;;;5.04;49.46;102873.36;5074209;56;1141056;-74
2022/02/28 16:58:27;;;;;;;93.77;26.97;;;;;;;4.97;50.43;102872.19;5076091;56;1140751;-75
2022/02/28 17:03:33;;;;;;;69.42;17.75;;;;;;;4.85;51.06;102874.58;5082193;56;1138850;-77
2022/02/28 17:08:39;;;;;;;50.60;8.98;;;;;;;4.74;51.75;102878.66;5070017;56;1138695;-69
2022/02/28 17:13:45;;;;;;;44.40;11.83;;;;;;;4.59;52.49;102884.13;5057286;57;1136610;-73
2022/02/28 17:18:50;;;;;;;56.93;10.07;;;;;;;4.47;52.91;102885.63;5111062;56;1139013;-69
2022/02/28 17:23:56;;;;;;;53.75;10.30;;;;;;;4.41;53.36;102883.98;5121851;56;1138835;-75
2022/02/28 17:29:02;;;;;;;84.45;10.35;;;;;;;4.30;53.67;102875.83;5121788;56;1138915;-70
2022/02/28 17:34:10;;;;;;;89.97;13.80;;;;;;;4.14;54.03;102881.28;5121600;56;1138913;-73
2022/02/28 17:39:16;;;;;;;98.93;22.53;;;;;;;4.01;54.44;102880.15;5121318;56;1138692;-75
2022/02/28 17:44:22;;;;;;;127.90;41.27;;;;;;;3.84;54.78;102879.05;5118629;56;1138878;-72
2022/02/28 17:49:28;;;;;;;95.40;30.87;;;;;;;3.65;55.10;102873.19;5063509;56;1140969;-74
2022/02/28 17:54:34;;;;;;;94.90;30.57;;;;;;;3.54;55.53;102869.80;5056941;57;1138761;-69
2022/02/28 17:59:40;;;;;;;137.50;50.92;;;;;;;3.44;55.71;102876.02;5056790;57;1138859;-75
2022/02/28 18:04:46;;;;;;;321.50;131.53;;;;;;;3.39;56.13;102889.57;5056809;57;1140756;-74
2022/02/28 18:09:52;;;;;;;122.50;51.73;;;;;;;3.31;56.30;102880.51;5064522;56;1143183;-73
2022/02/28 18:14:57;;;;;;;231.90;77.35;;;;;;;3.11;56.38;102895.06;5109873;56;1140736;-76
2022/02/28 18:20:04;;;;;;;139.55;56.13;;;;;;;2.95;57.09;102897.81;5138860;56;1140652;-75
2022/02/28 18:25:12;;;;;;;112.97;44.13;;;;;;;2.85;57.76;102898.78;5099161;56;1141039;-75
2022/02/28 18:30:17;;;;;;;85.00;34.10;;;;;;;2.83;58.43;102907.94;5089898;56;1140813;-76
2022/02/28 18:35:25;;;;;;;169.13;61.13;;;;;;;2.80;58.80;102901.42;5083055;56;1138745;-75
2022/02/28 18:40:34;;;;;;;211.93;80.50;;;;;;;2.77;59.29;102904.05;5082012;56;1140847;-75
2022/02/28 18:45:43;;;;;;;199.50;73.70;;;;;;;2.79;59.60;102908.39;5119274;56;1140710;-75
2022/02/28 18:50:48;;;;;;;391.70;147.57;;;;;;;2.81;59.72;102909.25;5144693;56;1140789;-75
2022/02/28 18:55:54;;;;;;;349.47;122.73;;;;;;;2.79;59.64;102905.77;5109080;56;1142953;-75
2022/02/28 19:01:01;;;;;;;233.45;89.07;;;;;;;2.70;59.56;102904.55;5056935;57;1142760;-75
2022/02/28 19:06:08;;;;;;;326.50;109.17;;;;;;;2.55;59.45;102904.65;5056980;57;1140855;-75
2022/02/28 19:11:14;;;;;;;390.70;125.70;;;;;;;2.40;59.91;102906.91;5060494;56;1142764;-76
2022/02/28 19:16:19;;;;;;;417.47;139.50;;;;;;;2.30;60.20;102913.03;5070602;56;1143033;-75
2022/02/28 19:21:25;;;;;;;222.50;65.67;;;;;;;2.31;60.56;102922.61;5102820;56;1142783;-73
2022/02/28 19:26:31;;;;;;;234.87;70.10;;;;;;;2.26;60.51;102920.48;5075870;56;1140758;-74
2022/02/28 19:31:36;;;;;;;300.60;97.80;;;;;;;2.15;60.86;102919.64;5081599;56;1140809;-79
2022/02/28 19:36:42;;;;;;;382.50;132.27;;;;;;;2.13;61.39;102915.33;5058077;57;1140881;-79
2022/02/28 19:41:48;;;;;;;382.43;128.53;;;;;;;2.14;61.91;102913.98;5064124;57;1142977;-77
2022/02/28 19:46:55;;;;;;;336.83;109.73;;;;;;;2.14;61.98;102919.67;5071088;57;1148960;-77
2022/02/28 19:52:02;;;;;;;260.20;84.65;;;;;;;2.07;62.05;102916.20;5064615;57;1143099;-78
2022/02/28 19:57:08;;;;;;;145.83;49.50;;;;;;;1.99;62.17;102925.79;5013488;57;1140948;-79
2022/02/28 20:02:14;;;;;;;120.47;35.50;;;;;;;1.95;62.56;102922.34;5012808;57;1141211;-81
2022/02/28 20:07:20;;;;;;;71.30;19.27;;;;;;;1.85;62.75;102926.28;5019269;57;1140915;-75
2022/02/28 20:12:26;;;;;;;79.70;28.70;;;;;;;1.85;63.31;102928.45;5029096;57;1138644;-77
2022/02/28 20:17:32;;;;;;;61.37;21.23;;;;;;;1.84;63.37;102928.45;4982059;57;1138748;-78
2022/02/28 20:22:38;;;;;;;89.70;30.70;;;;;;;1.81;63.54;102930.66;4990951;57;1138674;-76
2022/02/28 20:27:44;;;;;;;92.77;27.40;;;;;;;1.79;64.08;102929.80;5035802;57;1139009;-69
2022/02/28 20:32:50;;;;;;;57.73;16.77;;;;;;;1.70;64.08;102925.88;5011634;57;1138652;-69
2022/02/28 20:37:59;;;;;;;108.47;38.17;;;;;;;1.67;64.17;102925.48;5017199;57;1138800;-71
2022/02/28 20:43:04;;;;;;;139.75;50.67;;;;;;;1.61;64.47;102932.00;5064059;56;1140985;-68
2022/02/28 20:48:10;;;;;;;172.07;57.40;;;;;;;1.50;64.62;102925.95;5062954;56;1140979;-72
2022/02/28 20:53:16;;;;;;;111.37;41.35;;;;;;;1.36;64.60;102919.88;5067523;56;1140978;-75
2022/02/28 20:58:22;;;;;;;121.13;43.87;;;;;;;1.33;64.75;102930.31;5062631;56;1141069;-72
2022/02/28 21:03:28;;;;;;;131.70;48.37;;;;;;;1.22;65.16;102934.67;5063088;56;1140920;-70
2022/02/28 21:08:35;;;;;;;93.43;41.57;;;;;;;1.24;65.62;102936.38;5062434;57;1140966;-72
2022/02/28 21:13:40;;;;;;;104.30;44.43;;;;;;;1.13;65.21;102940.73;5120826;56;1138937;-70
2022/02/28 21:18:46;;;;;;;139.27;53.73;;;;;;;1.07;66.15;102939.88;5065391;56;1140837;-69
2022/02/28 21:23:56;;;;;;;219.00;72.47;;;;;;;1.03;66.33;102946.39;5071948;56;1140900;-73
2022/02/28 21:29:01;;;;;;;169.72;58.30;;;;;;;1.02;66.51;102940.73;5079105;56;1140955;-72
2022/02/28 21:34:07;;;;;;;214.63;80.47;;;;;;;1.01;66.59;102953.77;5062442;57;1140885;-70
2022/02/28 21:39:13;;;;;;;215.40;78.13;;;;;;;1.01;66.64;102953.33;5067610;56;1141120;-70
2022/02/28 21:44:19;;;;;;;156.33;53.43;;;;;;;0.96;66.49;102951.14;5064448;57;1140715;-70
2022/02/28 21:49:26;;;;;;;163.27;54.53;;;;;;;0.79;66.43;102954.59;5052249;57;1140877;-72
2022/02/28 21:54:32;;;;;;;165.57;53.43;;;;;;;0.76;67.14;102965.89;4993870;57;1140885;-69
2022/02/28 21:59:37;;;;;;;155.23;52.93;;;;;;;0.76;67.49;102960.69;5060038;57;1141074;-71
2022/02/28 22:04:45;;;;;;;170.37;57.87;;;;;;;0.80;67.79;102946.78;5020607;57;1140732;-72
2022/02/28 22:09:52;;;;;;;74.73;27.43;;;;;;;0.83;67.91;102951.13;5000495;57;1140934;-77
2022/02/28 22:14:57;;;;;;;68.33;25.67;;;;;;;0.84;68.02;102955.04;4982461;58;1140702;-74
2022/02/28 22:20:04;;;;;;;115.47;39.97;;;;;;;0.72;67.83;102944.61;4982213;58;1138945;-73
2022/02/28 22:25:11;;;;;;;165.47;58.60;;;;;;;0.57;67.75;102941.97;4982141;58;1140853;-73
2022/02/28 22:30:18;;;;;;;222.70;71.73;;;;;;;0.52;67.99;102947.59;4981715;58;1141063;-79
2022/02/28 22:35:24;;;;;;;223.40;77.73;;;;;;;0.41;67.98;102950.59;4982206;58;1140765;-77
2022/02/28 22:40:30;;;;;;;170.77;61.37;;;;;;;0.32;68.44;102957.92;4981656;58;1140897;-77
2022/02/28 22:45:36;;;;;;;199.20;65.60;;;;;;;0.35;68.86;102957.94;5041435;57;1140635;-76
2022/02/28 22:50:42;;;;;;;251.80;77.37;;;;;;;0.27;68.96;102943.62;5056958;57;1140837;-75
2022/02/28 22:55:48;;;;;;;224.83;75.70;;;;;;;0.16;68.78;102943.11;5080507;56;1140897;-77
2022/02/28 23:00:57;;;;;;;120.23;42.13;;;;;;;0.08;69.30;102935.29;5121403;56;1140901;-74
2022/02/28 23:06:03;;;;;;;94.93;35.30;;;;;;;-0.01;69.42;102923.55;5121387;56;1140720;-79